createdAt,value
2019-04-20T00:01:28.000Z,11.88
2019-04-20T00:03:53.545Z,12.47
2019-04-20T00:06:22.003Z,12.03
2019-04-20T00:08:55.714Z,13.20
2019-04-20T00:11:29.468Z,12.05
2019-04-20T00:14:00.100Z,11.05
2019-04-20T00:16:23.075Z,11.90
2019-04-20T00:18:55.297Z,9.50
2019-04-20T00:21:42.644Z,10.63
2019-04-20T00:24:21.048Z,10.93
2019-04-20T00:27:10.584Z,9.28
2019-04-20T00:29:35.456Z,8.83
2019-04-20T00:32:00.549Z,9.90
2019-04-20T00:36:47.341Z,8.23
2019-04-20T00:39:17.209Z,9.33
2019-04-20T00:41:51.491Z,9.65
2019-04-20T00:44:23.362Z,9.05
2019-04-20T00:47:04.881Z,8.73
2019-04-20T00:49:30.691Z,8.78
2019-04-20T00:52:19.750Z,9.60
2019-04-20T00:54:20.256Z,9.03
2019-04-20T00:56:52.052Z,9.60
2019-04-20T00:59:35.537Z,8.95
2019-04-20T01:02:10.292Z,9.43
2019-04-20T01:04:40.936Z,8.60
2019-04-20T01:07:27.412Z,8.15
2019-04-20T01:10:08.970Z,8.13
2019-04-20T01:12:40.419Z,8.68
2019-04-20T01:15:11.838Z,8.85
2019-04-20T01:17:41.472Z,7.58
2019-04-20T01:22:44.645Z,8.58
2019-04-20T01:25:20.671Z,9.00
2019-04-20T01:28:02.106Z,7.87
2019-04-20T01:30:21.058Z,8.28
2019-04-20T01:32:57.571Z,8.83
2019-04-20T01:35:34.504Z,9.88
2019-04-20T01:38:00.815Z,8.28
2019-04-20T01:40:15.012Z,9.05
2019-04-20T01:42:44.583Z,8.98
2019-04-20T01:45:21.477Z,9.03
2019-04-20T01:47:49.410Z,8.93
2019-04-20T01:50:20.995Z,8.50
2019-04-20T01:52:53.863Z,7.95
2019-04-20T01:55:42.495Z,9.85
2019-04-20T01:58:25.463Z,10.28
2019-04-20T02:01:13.688Z,10.05
2019-04-20T02:03:52.074Z,9.45
2019-04-20T02:06:22.270Z,11.43
2019-04-20T02:08:56.605Z,10.72
2019-04-20T02:11:25.965Z,9.43
2019-04-20T02:13:56.623Z,9.83
2019-04-20T02:16:28.803Z,8.93
2019-04-20T02:19:10.785Z,9.05
2019-04-20T02:21:38.243Z,9.30
2019-04-20T02:23:57.795Z,9.70
2019-04-20T02:26:24.006Z,9.43
2019-04-20T02:29:21.246Z,9.93
2019-04-20T02:32:07.635Z,9.88
2019-04-20T02:34:39.882Z,10.38
2019-04-20T02:39:51.431Z,11.40
2019-04-20T02:42:17.578Z,11.90
2019-04-20T02:44:44.258Z,11.00
2019-04-20T02:49:44.884Z,11.15
2019-04-20T02:52:19.112Z,13.60
2019-04-20T02:54:38.223Z,13.15
2019-04-20T03:00:01.201Z,13.80
2019-04-20T03:01:59.081Z,12.45
2019-04-20T03:04:23.628Z,13.68
2019-04-20T03:06:58.363Z,14.35
2019-04-20T03:09:36.527Z,12.45
2019-04-20T03:12:08.102Z,12.00
2019-04-20T03:14:30.295Z,12.95
2019-04-20T03:17:13.479Z,13.00
2019-04-20T03:22:08.902Z,11.70
2019-04-20T03:27:15.838Z,11.63
2019-04-20T03:29:57.769Z,11.28
2019-04-20T03:35:30.153Z,11.18
2019-04-20T03:37:42.163Z,9.73
2019-04-20T03:40:06.871Z,9.90
2019-04-20T03:42:22.702Z,8.65
2019-04-20T03:44:57.064Z,8.68
2019-04-20T03:47:32.245Z,9.08
2019-04-20T03:50:10.741Z,9.10
2019-04-20T03:52:58.011Z,10.78
2019-04-20T03:55:26.178Z,10.72
2019-04-20T03:58:10.218Z,9.63
2019-04-20T04:00:54.561Z,10.35
2019-04-20T04:04:06.331Z,13.13
2019-04-20T04:06:24.178Z,11.60
2019-04-20T04:08:58.687Z,11.03
2019-04-20T04:11:31.255Z,10.72
2019-04-20T04:13:44.240Z,9.68
2019-04-20T04:16:16.408Z,11.30
2019-04-20T04:18:48.041Z,10.13
2019-04-20T04:21:22.071Z,11.08
2019-04-20T04:24:02.236Z,11.90
2019-04-20T04:26:34.150Z,13.48
2019-04-20T04:31:41.268Z,11.35
2019-04-20T04:34:27.865Z,13.60
2019-04-20T04:36:38.708Z,10.93
2019-04-20T04:39:11.379Z,11.38
2019-04-20T04:41:36.486Z,10.60
2019-04-20T04:44:09.664Z,14.00
2019-04-20T04:48:52.750Z,11.10
2019-04-20T04:51:24.715Z,11.05
2019-04-20T04:53:59.349Z,12.40
2019-04-20T04:56:23.932Z,10.03
2019-04-20T04:58:51.802Z,10.48
2019-04-20T05:01:27.376Z,9.70
2019-04-20T05:04:29.619Z,11.05
2019-04-20T05:06:41.416Z,10.85
2019-04-20T05:11:25.818Z,10.40
2019-04-20T05:14:02.067Z,11.33
2019-04-20T05:16:46.027Z,10.70
2019-04-20T05:19:19.062Z,11.60
2019-04-20T05:22:04.046Z,12.13
2019-04-20T05:24:38.973Z,11.25
2019-04-20T05:27:34.831Z,10.93
2019-04-20T05:29:42.774Z,10.88
2019-04-20T05:32:16.875Z,10.58
2019-04-20T05:35:07.308Z,11.33
2019-04-20T05:37:41.935Z,10.85
2019-04-20T05:40:07.463Z,10.48
2019-04-20T05:42:35.876Z,11.80
2019-04-20T05:45:08.699Z,10.98
2019-04-20T05:47:41.516Z,11.53
2019-04-20T05:50:01.266Z,11.38
2019-04-20T05:55:09.978Z,12.15
2019-04-20T05:57:42.047Z,11.25
2019-04-20T06:00:17.350Z,10.82
2019-04-20T06:02:44.105Z,11.38
2019-04-20T06:07:42.136Z,10.90
2019-04-20T06:10:20.432Z,10.50
2019-04-20T06:12:46.060Z,8.85
2019-04-20T06:15:40.387Z,11.03
2019-04-20T06:18:21.430Z,11.65
2019-04-20T06:21:00.086Z,10.78
2019-04-20T06:23:47.713Z,13.35
2019-04-20T06:26:39.402Z,13.90
2019-04-20T06:28:37.965Z,13.48
2019-04-20T06:31:14.763Z,14.55
2019-04-20T06:36:55.890Z,11.53
2019-04-20T06:39:30.930Z,11.28
2019-04-20T06:52:26.181Z,11.22
2019-04-20T06:55:22.038Z,10.88
2019-04-20T07:00:24.859Z,10.60
2019-04-20T07:05:20.754Z,10.75
2019-04-20T07:07:53.409Z,12.23
2019-04-20T07:12:48.102Z,9.78
2019-04-20T07:18:00.264Z,10.43
2019-04-20T07:20:51.591Z,11.43
2019-04-20T07:23:22.384Z,10.15
2019-04-20T07:25:47.857Z,10.13
2019-04-20T07:30:49.411Z,12.55
2019-04-20T07:33:21.741Z,12.73
2019-04-20T07:40:51.322Z,11.40
2019-04-20T07:43:22.219Z,11.38
2019-04-20T07:45:51.683Z,9.50
2019-04-20T07:48:38.087Z,9.18
2019-04-20T07:50:46.270Z,8.50
2019-04-20T07:53:20.192Z,8.68
2019-04-20T07:58:18.175Z,7.55
2019-04-20T08:01:09.019Z,7.60
2019-04-20T08:03:47.078Z,8.18
2019-04-20T08:06:23.262Z,7.30
2019-04-20T08:09:05.408Z,6.50
2019-04-20T08:11:41.101Z,6.90
2019-04-20T08:16:47.106Z,7.12
2019-04-20T08:19:07.923Z,8.43
2019-04-20T08:24:07.483Z,6.30
2019-04-20T08:29:00.188Z,7.17
2019-04-20T08:31:56.276Z,6.45
2019-04-20T08:34:31.301Z,6.37
2019-04-20T08:37:01.407Z,5.95
2019-04-20T08:42:01.971Z,7.37
2019-04-20T08:47:15.883Z,5.87
2019-04-20T08:52:21.311Z,5.87
2019-04-20T08:54:31.295Z,6.42
2019-04-20T08:56:51.147Z,6.08
2019-04-20T08:59:14.937Z,5.53
2019-04-20T09:01:44.643Z,6.33
2019-04-20T09:04:20.746Z,5.25
2019-04-20T09:07:02.579Z,6.33
2019-04-20T09:09:44.229Z,5.60
2019-04-20T09:12:06.446Z,5.83
2019-04-20T09:14:21.315Z,6.03
2019-04-20T09:17:02.907Z,5.42
2019-04-20T09:19:37.881Z,5.80
2019-04-20T09:22:28.276Z,4.87
2019-04-20T09:25:19.290Z,5.75
2019-04-20T09:27:29.570Z,5.20
2019-04-20T09:30:04.587Z,4.35
2019-04-20T09:32:40.292Z,5.12
2019-04-20T09:35:17.332Z,5.08
2019-04-20T09:37:53.172Z,5.33
2019-04-20T09:40:38.470Z,5.42
2019-04-20T09:42:50.695Z,4.87
2019-04-20T09:45:33.027Z,4.95
2019-04-20T09:47:56.624Z,5.10
2019-04-20T09:50:43.577Z,4.53
2019-04-20T09:53:08.760Z,4.75
2019-04-20T09:55:36.320Z,4.90
2019-04-20T09:58:09.958Z,4.95
2019-04-20T10:00:57.074Z,5.35
2019-04-20T10:03:12.811Z,4.80
2019-04-20T10:05:43.476Z,4.67
2019-04-20T10:08:13.942Z,4.50
2019-04-20T10:10:45.595Z,4.40
2019-04-20T10:13:13.477Z,4.65
2019-04-20T10:15:43.641Z,4.47
2019-04-20T10:18:14.102Z,4.58
2019-04-20T10:20:44.964Z,4.62
2019-04-20T10:23:14.367Z,5.15
2019-04-20T10:25:44.595Z,4.47
2019-04-20T10:28:13.920Z,5.30
2019-04-20T10:30:42.546Z,4.70
2019-04-20T10:33:11.220Z,4.70
2019-04-20T10:35:39.642Z,6.12
2019-04-20T10:38:16.179Z,5.53
2019-04-20T10:40:55.870Z,5.05
2019-04-20T10:43:16.359Z,5.90
2019-04-20T10:45:44.933Z,5.70
2019-04-20T10:48:15.046Z,5.58
2019-04-20T10:53:12.190Z,5.42
2019-04-20T10:55:40.478Z,5.47
2019-04-20T10:58:09.398Z,5.65
2019-04-20T11:00:41.945Z,5.10
2019-04-20T11:03:13.586Z,4.45
2019-04-20T11:05:44.516Z,4.50
2019-04-20T11:08:14.966Z,3.87
2019-04-20T11:10:55.533Z,3.98
2019-04-20T11:13:15.281Z,4.50
2019-04-20T11:15:44.420Z,3.80
2019-04-20T11:18:13.412Z,3.42
2019-04-20T11:20:43.519Z,3.40
2019-04-20T11:23:12.405Z,3.22
2019-04-20T11:25:42.079Z,3.22
2019-04-20T11:30:40.448Z,4.47
2019-04-20T11:33:09.916Z,4.00
2019-04-20T11:35:41.634Z,2.57
2019-04-20T11:38:12.480Z,3.40
2019-04-20T11:40:41.181Z,3.67
2019-04-20T11:43:11.475Z,3.40
2019-04-20T11:45:40.569Z,3.80
2019-04-20T11:48:09.613Z,2.90
2019-04-20T11:50:38.043Z,2.98
2019-04-20T11:53:06.625Z,2.55
2019-04-20T11:55:36.244Z,2.83
2019-04-20T11:58:05.890Z,2.65
2019-04-20T12:00:45.824Z,2.67
2019-04-20T12:03:24.764Z,2.45
2019-04-20T12:05:53.808Z,2.62
2019-04-20T12:08:23.157Z,2.52
2019-04-20T12:10:56.503Z,2.30
2019-04-20T12:13:24.687Z,3.12
2019-04-20T12:15:53.908Z,3.02
2019-04-20T12:18:23.383Z,2.80
2019-04-20T12:20:52.649Z,2.65
2019-04-20T12:23:22.307Z,2.92
2019-04-20T12:25:52.327Z,3.47
2019-04-20T12:28:21.932Z,3.08
2019-04-20T12:30:51.546Z,3.02
2019-04-20T12:33:21.849Z,3.42
2019-04-20T12:38:19.181Z,2.75
2019-04-20T12:40:48.277Z,3.20
2019-04-20T12:43:17.439Z,2.70
2019-04-20T12:45:46.005Z,3.85
2019-04-20T12:48:15.591Z,3.20
2019-04-20T12:50:45.637Z,2.70
2019-04-20T12:53:14.837Z,2.80
2019-04-20T12:55:44.339Z,3.10
2019-04-20T12:58:14.480Z,2.92
2019-04-20T13:00:46.383Z,3.15
2019-04-20T13:03:14.862Z,2.70
2019-04-20T13:05:44.070Z,3.45
2019-04-20T13:08:23.322Z,3.72
2019-04-20T13:10:55.509Z,2.90
2019-04-20T13:13:32.794Z,2.80
2019-04-20T13:16:10.391Z,2.87
2019-04-20T13:18:45.473Z,3.47
2019-04-20T13:21:13.942Z,2.77
2019-04-20T13:23:42.894Z,2.47
2019-04-20T13:26:12.658Z,2.40
2019-04-20T13:28:43.025Z,2.50
2019-04-20T13:31:11.805Z,2.40
2019-04-20T13:33:41.196Z,2.20
2019-04-20T13:36:10.302Z,2.20
2019-04-20T13:38:40.312Z,2.22
2019-04-20T13:41:09.606Z,2.50
2019-04-20T13:43:39.651Z,2.30
2019-04-20T13:46:09.224Z,2.62
2019-04-20T13:48:39.054Z,3.35
2019-04-20T13:51:07.976Z,2.50
2019-04-20T13:53:37.169Z,2.92
2019-04-20T13:56:07.597Z,1.90
2019-04-20T13:59:14.339Z,2.25
2019-04-20T14:01:48.762Z,2.33
2019-04-20T14:04:20.966Z,2.58
2019-04-20T14:06:51.181Z,2.20
2019-04-20T14:09:21.451Z,2.37
2019-04-20T14:11:52.067Z,2.20
2019-04-20T14:14:21.381Z,1.75
2019-04-20T14:16:50.457Z,3.27
2019-04-20T14:19:21.028Z,2.40
2019-04-20T14:21:50.207Z,1.92
2019-04-20T14:24:19.146Z,2.10
2019-04-20T14:26:48.510Z,1.98
2019-04-20T14:29:17.119Z,1.80
2019-04-20T14:31:46.036Z,2.83
2019-04-20T14:34:15.148Z,2.00
2019-04-20T14:36:44.568Z,2.25
2019-04-20T14:39:14.114Z,2.70
2019-04-20T14:41:42.665Z,2.52
2019-04-20T14:44:12.083Z,2.83
2019-04-20T14:46:42.008Z,2.40
2019-04-20T14:49:12.486Z,2.55
2019-04-20T14:51:41.678Z,2.70
2019-04-20T14:54:11.719Z,2.10
2019-04-20T14:56:41.324Z,2.25
2019-04-20T14:59:19.870Z,2.83
2019-04-20T15:02:15.369Z,3.10
2019-04-20T15:04:45.289Z,2.65
2019-04-20T15:07:15.028Z,2.33
2019-04-20T15:09:44.892Z,1.92
2019-04-20T15:12:15.409Z,2.40
2019-04-20T15:14:44.947Z,3.00
2019-04-20T15:17:25.558Z,2.65
2019-04-20T15:20:23.423Z,2.67
2019-04-20T15:22:54.198Z,2.30
2019-04-20T15:25:23.374Z,3.12
2019-04-20T15:27:52.325Z,2.47
2019-04-20T15:30:22.291Z,2.85
2019-04-20T15:32:52.376Z,2.85
2019-04-20T15:35:23.304Z,2.25
2019-04-20T15:37:52.983Z,2.27
2019-04-20T15:40:23.388Z,2.58
2019-04-20T15:43:01.120Z,2.47
2019-04-20T15:45:23.300Z,2.10
2019-04-20T15:47:52.222Z,2.05
2019-04-20T15:50:22.165Z,2.58
2019-04-20T15:52:54.495Z,2.75
2019-04-20T15:55:29.626Z,2.90
2019-04-20T15:57:53.442Z,2.72
2019-04-20T16:00:22.671Z,2.60
2019-04-20T16:02:59.150Z,2.47
2019-04-20T16:05:51.412Z,1.85
2019-04-20T16:08:32.255Z,2.08
2019-04-20T16:11:04.681Z,2.00
2019-04-20T16:13:39.560Z,2.55
2019-04-20T16:16:07.667Z,2.42
2019-04-20T16:18:37.114Z,2.25
2019-04-20T16:21:11.673Z,2.85
2019-04-20T16:24:08.944Z,2.60
2019-04-20T16:27:09.681Z,2.92
2019-04-20T16:29:39.731Z,2.08
2019-04-20T16:32:08.946Z,2.27
2019-04-20T16:34:38.346Z,2.85
2019-04-20T16:37:08.491Z,2.50
2019-04-20T16:39:38.627Z,3.12
2019-04-20T16:42:11.978Z,3.00
2019-04-20T16:44:41.158Z,2.95
2019-04-20T16:47:10.191Z,2.62
2019-04-20T16:49:39.075Z,2.83
2019-04-20T16:52:07.718Z,2.80
2019-04-20T16:54:37.559Z,2.92
2019-04-20T16:57:08.190Z,2.65
2019-04-20T16:59:42.355Z,3.17
2019-04-20T17:02:08.546Z,2.40
2019-04-20T17:07:33.161Z,3.00
2019-04-20T17:10:02.466Z,2.67
2019-04-20T17:12:33.655Z,2.35
2019-04-20T17:15:07.598Z,2.75
2019-04-20T17:17:37.688Z,2.75
2019-04-20T17:20:07.847Z,2.92
2019-04-20T17:22:37.224Z,3.10
2019-04-20T17:25:06.541Z,3.92
2019-04-20T17:27:59.252Z,3.07
2019-04-20T17:30:52.930Z,2.83
2019-04-20T17:33:53.442Z,3.15
2019-04-20T17:36:21.746Z,2.95
2019-04-20T17:38:52.628Z,2.85
2019-04-20T17:44:05.919Z,3.30
2019-04-20T17:46:33.094Z,2.75
2019-04-20T17:49:04.182Z,3.20
2019-04-20T17:51:39.993Z,4.72
2019-04-20T17:54:20.088Z,6.03
2019-04-20T17:56:48.800Z,5.75
2019-04-20T17:59:17.469Z,6.37
2019-04-20T18:02:44.339Z,6.17
2019-04-20T18:05:47.818Z,4.80
2019-04-20T18:08:23.045Z,6.22
2019-04-20T18:10:41.445Z,6.05
2019-04-20T18:13:07.066Z,4.62
2019-04-20T18:15:48.863Z,4.03
2019-04-20T18:18:48.800Z,4.25
2019-04-20T18:21:24.465Z,4.15
2019-04-20T18:23:54.127Z,5.03
2019-04-20T18:26:43.248Z,4.27
2019-04-20T18:29:10.865Z,4.58
2019-04-20T18:34:13.147Z,5.50
2019-04-20T18:36:42.832Z,4.85
2019-04-20T18:39:13.250Z,5.42
2019-04-20T18:41:46.524Z,5.42
2019-04-20T18:44:10.781Z,6.65
2019-04-20T18:47:03.508Z,6.62
2019-04-20T18:49:26.975Z,6.20
2019-04-20T18:51:41.812Z,6.25
2019-04-20T18:54:17.440Z,5.83
2019-04-20T18:56:45.873Z,7.40
2019-04-20T18:59:11.765Z,6.35
2019-04-20T19:01:43.106Z,6.22
2019-04-20T19:04:11.970Z,6.10
2019-04-20T19:06:41.446Z,7.05
2019-04-20T19:09:17.812Z,7.30
2019-04-20T19:11:45.671Z,7.55
2019-04-20T19:14:35.579Z,8.03
2019-04-20T19:17:23.114Z,7.05
2019-04-20T19:19:56.171Z,6.30
2019-04-20T19:22:21.857Z,7.22
2019-04-20T19:24:51.779Z,6.80
2019-04-20T19:27:30.262Z,6.72
2019-04-20T19:30:01.172Z,6.03
2019-04-20T19:32:38.133Z,6.00
2019-04-20T19:35:01.325Z,6.25
2019-04-20T19:40:09.566Z,6.83
2019-04-20T19:45:25.213Z,6.97
2019-04-20T19:47:42.878Z,7.12
2019-04-20T19:50:25.171Z,6.92
2019-04-20T19:55:14.367Z,7.50
2019-04-20T19:57:45.166Z,7.53
2019-04-20T19:59:59.858Z,6.50
2019-04-20T20:02:29.884Z,6.83
2019-04-20T20:05:05.428Z,7.62
2019-04-20T20:07:38.007Z,7.10
2019-04-20T20:12:33.583Z,6.60
2019-04-20T20:15:11.422Z,7.83
2019-04-20T20:18:03.623Z,8.23
2019-04-20T20:20:33.681Z,8.65
2019-04-20T20:22:45.363Z,8.23
2019-04-20T20:25:12.801Z,9.03
2019-04-20T20:27:49.133Z,8.48
2019-04-20T20:30:23.047Z,9.20
2019-04-20T20:33:01.565Z,9.13
2019-04-20T20:35:21.866Z,9.90
2019-04-20T20:40:23.293Z,9.18
2019-04-20T20:42:58.073Z,8.90
2019-04-20T20:45:26.316Z,8.83
2019-04-20T20:48:03.880Z,7.45
2019-04-20T20:53:00.780Z,8.50
2019-04-20T20:55:29.525Z,7.65
2019-04-20T20:58:01.156Z,7.85
2019-04-20T21:00:35.884Z,8.38
2019-04-20T21:02:59.337Z,8.05
2019-04-20T21:07:51.424Z,8.53
2019-04-20T21:10:26.913Z,8.40
2019-04-20T21:12:55.402Z,7.97
2019-04-20T21:15:26.389Z,7.87
2019-04-20T21:18:20.562Z,7.72
2019-04-20T21:23:13.583Z,8.50
2019-04-20T21:28:00.665Z,7.33
2019-04-20T21:30:36.236Z,8.25
2019-04-20T21:33:04.222Z,8.58
2019-04-20T21:35:39.105Z,8.85
2019-04-20T21:38:08.034Z,8.33
2019-04-20T21:40:39.560Z,8.90
2019-04-20T21:43:07.423Z,7.60
2019-04-20T21:45:37.677Z,8.28
2019-04-20T21:50:56.512Z,9.67
2019-04-20T21:53:14.520Z,9.15
2019-04-20T21:55:37.258Z,10.00
2019-04-20T21:58:07.234Z,9.98
2019-04-20T22:01:05.101Z,10.75
2019-04-20T22:03:24.683Z,8.80
2019-04-20T22:06:06.804Z,10.90
2019-04-20T22:08:39.348Z,9.75
2019-04-20T22:13:40.137Z,9.73
2019-04-20T22:16:12.582Z,9.10
2019-04-20T22:18:51.814Z,9.35
2019-04-20T22:23:59.863Z,9.87
2019-04-20T22:26:26.811Z,10.82
2019-04-20T22:28:44.690Z,8.88
2019-04-20T22:31:14.037Z,10.32
2019-04-20T22:33:45.443Z,9.23
2019-04-20T22:36:16.556Z,9.20
2019-04-20T22:41:38.659Z,8.30
2019-04-20T22:44:14.560Z,8.50
2019-04-20T22:46:40.994Z,9.58
2019-04-20T22:49:29.491Z,8.00
2019-04-20T22:51:50.905Z,8.13
2019-04-20T22:54:28.849Z,8.90
2019-04-20T22:56:49.975Z,8.50
2019-04-20T23:01:49.885Z,8.10
2019-04-20T23:04:12.830Z,8.75
2019-04-20T23:06:46.270Z,8.60
2019-04-20T23:11:42.672Z,9.23
2019-04-20T23:14:11.455Z,9.48
2019-04-20T23:19:14.214Z,10.78
2019-04-20T23:21:48.730Z,10.03
2019-04-20T23:24:15.345Z,11.40
2019-04-20T23:26:47.194Z,11.40
2019-04-20T23:31:50.053Z,10.35
2019-04-20T23:34:20.101Z,9.60
2019-04-20T23:36:48.496Z,9.73
2019-04-20T23:39:15.360Z,9.90
2019-04-20T23:41:53.665Z,9.35
2019-04-20T23:44:27.252Z,9.25
2019-04-20T23:47:09.716Z,8.93
2019-04-20T23:49:54.491Z,8.28
2019-04-20T23:52:31.666Z,8.60
2019-04-20T23:57:08.133Z,8.23
2019-04-20T23:59:40.833Z,8.53
